createdAt,value
2024-05-09T00:00:47.476Z,5.20
2024-05-09T00:05:50.479Z,5.10
2024-05-09T00:10:53.702Z,5.05
2024-05-09T00:15:56.410Z,5.30
2024-05-09T00:20:59.546Z,5.13
2024-05-09T00:26:02.475Z,5.18
2024-05-09T00:31:05.392Z,5.00
2024-05-09T00:36:08.177Z,5.25
2024-05-09T00:41:11.325Z,5.13
2024-05-09T00:46:14.230Z,5.40
2024-05-09T00:51:17.036Z,5.85
2024-05-09T00:56:20.130Z,5.35
2024-05-09T01:01:23.560Z,5.18
2024-05-09T01:06:26.233Z,5.70
2024-05-09T01:11:39.480Z,5.10
2024-05-09T01:16:42.664Z,5.30
2024-05-09T01:21:45.393Z,5.50
2024-05-09T01:26:48.061Z,5.40
2024-05-09T01:31:50.972Z,4.80
2024-05-09T01:36:53.883Z,5.40
2024-05-09T01:41:56.582Z,5.60
2024-05-09T01:46:59.536Z,5.00
2024-05-09T01:52:02.317Z,5.07
2024-05-09T01:57:05.430Z,5.22
2024-05-09T02:02:08.254Z,5.63
2024-05-09T02:07:11.010Z,5.35
2024-05-09T02:12:13.660Z,5.05
2024-05-09T02:17:16.704Z,5.35
2024-05-09T02:22:19.476Z,5.47
2024-05-09T02:27:22.199Z,5.10
2024-05-09T02:32:25.108Z,5.05
2024-05-09T02:37:28.084Z,5.30
2024-05-09T02:42:30.794Z,4.75
2024-05-09T02:47:33.576Z,5.03
2024-05-09T02:52:36.342Z,4.72
2024-05-09T02:57:38.999Z,4.28
2024-05-09T03:02:44.218Z,5.05
2024-05-09T03:07:47.109Z,4.72
2024-05-09T03:12:49.775Z,4.95
2024-05-09T03:17:52.542Z,4.32
2024-05-09T03:22:56.930Z,4.13
2024-05-09T03:27:59.946Z,4.40
2024-05-09T03:33:02.973Z,3.80
2024-05-09T03:38:05.846Z,3.67
2024-05-09T03:43:08.539Z,3.58
2024-05-09T03:53:14.682Z,3.33
2024-05-09T03:58:17.448Z,2.85
2024-05-09T04:08:22.953Z,3.03
2024-05-09T04:13:25.558Z,2.50
2024-05-09T04:23:30.912Z,2.53
2024-05-09T04:28:33.699Z,2.47
2024-05-09T04:33:36.631Z,2.00
2024-05-09T04:38:39.753Z,2.10
2024-05-09T04:43:42.398Z,2.40
2024-05-09T04:48:45.315Z,2.30
2024-05-09T04:53:48.540Z,2.10
2024-05-09T04:58:51.376Z,2.20
2024-05-09T05:03:56.146Z,2.00
2024-05-09T05:08:58.861Z,2.10
2024-05-09T05:19:05.317Z,1.90
2024-05-09T05:24:09.950Z,1.80
2024-05-09T05:29:12.745Z,1.90
2024-05-09T05:34:15.415Z,1.80
2024-05-09T05:39:18.077Z,1.80
2024-05-09T05:44:20.908Z,1.85
2024-05-09T05:49:23.751Z,1.73
2024-05-09T05:54:26.701Z,1.70
2024-05-09T05:59:29.669Z,1.33
2024-05-09T06:04:32.530Z,1.50
2024-05-09T06:09:53.655Z,1.83
2024-05-09T06:14:56.381Z,1.40
2024-05-09T06:25:01.390Z,1.50
2024-05-09T06:30:08.145Z,1.25
2024-05-09T06:35:12.649Z,1.63
2024-05-09T06:40:21.192Z,1.20
2024-05-09T06:45:27.988Z,1.38
2024-05-09T06:50:36.859Z,1.58
2024-05-09T06:55:41.059Z,1.35
2024-05-09T07:00:43.882Z,1.70
2024-05-09T07:05:48.123Z,1.40
2024-05-09T07:10:52.427Z,1.50
2024-05-09T07:15:55.471Z,1.20
2024-05-09T07:20:58.451Z,1.40
2024-05-09T07:26:01.638Z,1.30
2024-05-09T07:31:04.930Z,1.50
2024-05-09T07:36:08.078Z,1.40
2024-05-09T07:41:11.049Z,1.50
2024-05-09T07:47:14.137Z,1.35
2024-05-09T07:53:14.148Z,1.33
2024-05-09T07:56:59.472Z,1.27
2024-05-09T08:02:02.626Z,1.45
2024-05-09T08:07:05.583Z,1.27
2024-05-09T08:12:08.383Z,1.38
2024-05-09T08:17:11.055Z,1.70
2024-05-09T08:22:13.903Z,1.50
2024-05-09T08:27:16.653Z,1.40
2024-05-09T08:32:20.476Z,1.42
2024-05-09T08:37:26.083Z,1.60
2024-05-09T08:42:33.294Z,1.60
2024-05-09T08:47:36.671Z,1.55
2024-05-09T08:52:39.581Z,1.60
2024-05-09T08:57:43.518Z,1.50
2024-05-09T09:02:46.409Z,1.40
2024-05-09T09:07:49.396Z,1.52
2024-05-09T09:12:56.117Z,1.80
2024-05-09T09:17:59.720Z,1.50
2024-05-09T09:23:03.094Z,1.83
2024-05-09T09:28:06.958Z,2.20
2024-05-09T09:33:10.438Z,1.70
2024-05-09T09:38:13.579Z,1.80
2024-05-09T09:43:23.817Z,1.90
2024-05-09T09:48:26.706Z,1.63
2024-05-09T09:53:29.894Z,1.80
2024-05-09T09:58:32.628Z,1.88
2024-05-09T10:03:35.754Z,1.90
2024-05-09T10:08:38.886Z,1.88
2024-05-09T10:13:42.335Z,1.88
2024-05-09T10:18:45.521Z,1.63
2024-05-09T10:24:01.566Z,1.70
2024-05-09T10:29:14.394Z,2.00
2024-05-09T10:34:23.995Z,2.13
2024-05-09T10:39:27.043Z,2.40
2024-05-09T10:44:29.805Z,2.03
2024-05-09T10:49:33.253Z,2.60
2024-05-09T10:54:39.413Z,2.80
2024-05-09T10:59:42.243Z,1.98
2024-05-09T11:04:48.114Z,2.10
2024-05-09T11:09:51.000Z,2.17
2024-05-09T11:14:56.593Z,2.08
2024-05-09T11:19:59.627Z,2.00
2024-05-09T11:25:03.219Z,2.10
2024-05-09T11:30:11.508Z,2.42
2024-05-09T11:35:17.016Z,2.00
2024-05-09T11:40:25.417Z,2.05
2024-05-09T11:45:37.226Z,2.35
2024-05-09T11:50:40.419Z,2.20
2024-05-09T11:55:43.501Z,2.22
2024-05-09T12:00:46.978Z,2.20
2024-05-09T12:05:50.036Z,2.25
2024-05-09T12:10:53.603Z,2.15
2024-05-09T12:15:56.882Z,2.35
2024-05-09T12:20:59.605Z,2.00
2024-05-09T12:26:02.683Z,2.47
2024-05-09T12:31:05.885Z,2.08
2024-05-09T12:36:09.907Z,2.20
2024-05-09T12:41:13.143Z,2.10
2024-05-09T12:46:16.025Z,2.20
2024-05-09T12:51:18.935Z,2.20
2024-05-09T12:56:21.646Z,2.72
2024-05-09T13:01:24.435Z,2.30
2024-05-09T13:06:27.129Z,2.28
2024-05-09T13:16:32.247Z,2.30
2024-05-09T13:21:35.271Z,2.38
2024-05-09T13:26:37.911Z,2.28
2024-05-09T13:36:43.763Z,2.42
2024-05-09T13:41:46.438Z,2.42
2024-05-09T13:46:49.367Z,2.30
2024-05-09T13:51:52.242Z,2.28
2024-05-09T13:56:55.517Z,2.20
2024-05-09T14:01:58.479Z,2.30
2024-05-09T14:07:02.295Z,2.20
2024-05-09T14:12:06.130Z,2.10
2024-05-09T14:17:11.068Z,2.17
2024-05-09T14:22:14.308Z,2.67
2024-05-09T14:27:17.188Z,2.55
2024-05-09T14:32:19.985Z,2.58
2024-05-09T14:37:23.397Z,2.33
2024-05-09T14:42:26.517Z,2.17
2024-05-09T14:47:29.347Z,2.22
2024-05-09T14:52:32.237Z,2.60
2024-05-09T14:57:34.950Z,2.67
2024-05-09T15:02:37.933Z,2.97
2024-05-09T15:07:43.979Z,2.38
2024-05-09T15:12:46.834Z,2.50
2024-05-09T15:17:49.838Z,2.30
2024-05-09T15:22:52.560Z,2.50
2024-05-09T15:27:55.688Z,2.72
2024-05-09T15:32:58.574Z,2.30
2024-05-09T15:38:01.375Z,2.40
2024-05-09T15:43:04.696Z,2.58
2024-05-09T15:48:08.967Z,2.40
2024-05-09T15:53:13.050Z,2.45
2024-05-09T15:58:16.531Z,2.60
2024-05-09T16:03:19.325Z,2.33
2024-05-09T16:08:22.145Z,2.60
2024-05-09T16:13:25.033Z,3.80
2024-05-09T16:18:27.962Z,2.70
2024-05-09T16:23:30.654Z,2.95
2024-05-09T16:33:36.146Z,2.75
2024-05-09T16:38:40.145Z,2.92
2024-05-09T16:43:42.735Z,2.90
2024-05-09T16:53:47.958Z,3.00
2024-05-09T16:58:50.534Z,3.60
2024-05-09T17:08:59.100Z,3.00
2024-05-09T17:14:04.833Z,3.20
2024-05-09T17:19:07.652Z,3.30
2024-05-09T17:24:10.532Z,3.40
2024-05-09T17:29:13.178Z,3.88
2024-05-09T17:39:18.633Z,3.75
2024-05-09T17:44:21.203Z,4.03
2024-05-09T17:49:24.070Z,3.97
2024-05-09T17:54:27.064Z,3.92
2024-05-09T17:59:29.655Z,4.53
2024-05-09T18:09:36.730Z,4.00
2024-05-09T18:14:39.731Z,3.92
2024-05-09T18:19:42.384Z,4.32
2024-05-09T18:24:45.155Z,3.75
2024-05-09T18:29:47.908Z,3.47
2024-05-09T18:39:52.963Z,4.25
2024-05-09T18:49:57.909Z,4.47
2024-05-09T18:55:00.539Z,4.55
2024-05-09T19:05:08.193Z,4.50
2024-05-09T19:10:21.888Z,4.72
2024-05-09T19:15:28.252Z,4.40
2024-05-09T19:25:38.662Z,4.38
2024-05-09T19:47:01.041Z,4.60
2024-05-09T19:52:03.792Z,4.80
2024-05-09T19:57:06.441Z,4.20
2024-05-09T20:07:13.100Z,4.88
2024-05-09T20:12:15.818Z,4.68
2024-05-09T20:22:21.610Z,3.20
2024-05-09T20:27:24.296Z,3.90
2024-05-09T20:37:29.339Z,4.15
2024-05-09T20:47:52.757Z,3.28
2024-05-09T20:52:55.602Z,3.72
2024-05-09T21:03:00.852Z,3.65
2024-05-09T21:08:03.558Z,3.65
2024-05-09T21:13:07.264Z,3.38
2024-05-09T21:18:10.410Z,3.15
2024-05-09T21:23:13.163Z,3.30
2024-05-09T21:28:15.834Z,3.28
2024-05-09T21:38:20.990Z,3.20
2024-05-09T21:48:26.074Z,3.35
2024-05-09T21:53:28.724Z,3.17
2024-05-09T22:03:34.087Z,3.22
2024-05-09T22:08:55.472Z,3.33
2024-05-09T22:13:58.315Z,3.50
2024-05-09T22:19:01.101Z,3.33
2024-05-09T22:24:03.986Z,3.25
2024-05-09T22:29:06.633Z,3.28
2024-05-09T22:39:11.753Z,3.25
2024-05-09T22:49:16.801Z,3.33
2024-05-09T22:54:19.594Z,3.10
2024-05-09T22:59:22.376Z,3.22
2024-05-09T23:04:25.439Z,3.50
2024-05-09T23:09:28.427Z,3.13
2024-05-09T23:14:49.856Z,3.05
2024-05-09T23:19:52.572Z,3.05
2024-05-09T23:24:55.289Z,2.88
2024-05-09T23:35:00.878Z,2.90
2024-05-09T23:40:06.875Z,3.35
2024-05-09T23:45:09.900Z,3.10
2024-05-09T23:50:17.032Z,3.25
2024-05-09T23:55:26.436Z,3.22
